createdAt,value
2023-03-27T00:01:21.318Z,99871.97
2023-03-27T00:03:51.291Z,99875.38
2023-03-27T00:06:21.063Z,99877.81
2023-03-27T00:08:51.344Z,99885.53
2023-03-27T00:11:22.083Z,99882.75
2023-03-27T00:13:54.337Z,99888.75
2023-03-27T00:16:24.417Z,99898.13
2023-03-27T00:18:53.357Z,99900.59
2023-03-27T00:21:23.020Z,99898.72
2023-03-27T00:23:54.532Z,99908.94
2023-03-27T00:26:24.307Z,99902.69
2023-03-27T00:28:52.775Z,99907.72
2023-03-27T00:31:21.505Z,99910.94
2023-03-27T00:33:50.047Z,99917.78
2023-03-27T00:36:18.650Z,99922.78
2023-03-27T00:38:47.038Z,99924.22
2023-03-27T00:41:15.773Z,99930.13
2023-03-27T00:43:45.851Z,99933.53
2023-03-27T00:46:31.676Z,99934.28
2023-03-27T00:49:04.845Z,99936.78
2023-03-27T00:51:34.722Z,99946.25
2023-03-27T00:54:04.566Z,99942.69
2023-03-27T00:56:38.539Z,99942.63
2023-03-27T00:59:13.663Z,99950.19
2023-03-27T01:01:45.096Z,99949.16
2023-03-27T01:04:14.099Z,99959.50
2023-03-27T01:06:43.606Z,99963.69
2023-03-27T01:09:20.129Z,99968.78
2023-03-27T01:12:07.226Z,99973.78
2023-03-27T01:14:49.767Z,99963.38
2023-03-27T01:17:34.809Z,99967.59
2023-03-27T01:20:42.422Z,99985.59
2023-03-27T01:24:00.088Z,99985.44
2023-03-27T01:27:03.436Z,99984.34
2023-03-27T01:30:12.001Z,99994.53
2023-03-27T01:33:07.345Z,99994.38
2023-03-27T01:36:05.826Z,100005.44
2023-03-27T01:39:14.088Z,100003.59
2023-03-27T01:41:49.774Z,100006.91
2023-03-27T01:44:25.995Z,100018.94
2023-03-27T01:47:21.250Z,100021.31
2023-03-27T01:49:54.822Z,100022.16
2023-03-27T01:52:28.284Z,100023.03
2023-03-27T01:55:03.426Z,100015.22
2023-03-27T01:57:50.049Z,100022.97
2023-03-27T02:00:22.969Z,100039.34
2023-03-27T02:02:56.676Z,100026.34
2023-03-27T02:05:31.689Z,100036.66
2023-03-27T02:08:07.501Z,100029.72
2023-03-27T02:10:44.187Z,100038.28
2023-03-27T02:13:21.402Z,100041.69
2023-03-27T02:15:51.904Z,100052.03
2023-03-27T02:18:25.518Z,100058.78
2023-03-27T02:20:54.417Z,100057.81
2023-03-27T02:23:23.586Z,100071.66
2023-03-27T02:25:55.192Z,100071.53
2023-03-27T02:28:41.448Z,100077.53
2023-03-27T02:31:32.210Z,100078.25
2023-03-27T02:34:24.383Z,100083.31
2023-03-27T02:37:02.226Z,100084.75
2023-03-27T02:40:02.015Z,100090.53
2023-03-27T02:42:44.569Z,100099.81
2023-03-27T02:45:23.020Z,100109.06
2023-03-27T02:47:56.756Z,100112.28
2023-03-27T02:50:31.438Z,100112.03
2023-03-27T02:53:10.463Z,100116.03
2023-03-27T02:55:41.711Z,100115.84
2023-03-27T02:58:20.631Z,100113.06
2023-03-27T03:01:15.444Z,100115.47
2023-03-27T03:04:13.538Z,100122.94
2023-03-27T03:07:04.274Z,100131.34
2023-03-27T03:09:32.968Z,100142.28
2023-03-27T03:12:02.338Z,100134.34
2023-03-27T03:14:44.178Z,100144.50
2023-03-27T03:17:12.821Z,100146.09
2023-03-27T03:19:41.340Z,100154.63
2023-03-27T03:22:10.726Z,100156.03
2023-03-27T03:24:43.886Z,100162.00
2023-03-27T03:27:15.943Z,100161.81
2023-03-27T03:29:57.152Z,100164.19
2023-03-27T03:32:30.385Z,100164.00
2023-03-27T03:35:01.646Z,100161.25
2023-03-27T03:37:38.973Z,100169.59
2023-03-27T03:40:11.962Z,100173.69
2023-03-27T03:42:47.410Z,100174.28
2023-03-27T03:45:18.152Z,100178.38
2023-03-27T03:47:47.252Z,100186.69
2023-03-27T03:50:15.955Z,100192.56
2023-03-27T03:52:45.791Z,100185.41
2023-03-27T03:55:15.911Z,100199.94
2023-03-27T03:57:48.130Z,100205.78
2023-03-27T04:00:25.625Z,100204.78
2023-03-27T04:02:57.550Z,100208.97
2023-03-27T04:05:27.143Z,100210.53
2023-03-27T04:08:00.213Z,100213.81
2023-03-27T04:10:49.398Z,100214.53
2023-03-27T04:13:40.551Z,100224.84
2023-03-27T04:16:22.667Z,100220.38
2023-03-27T04:18:55.536Z,100226.22
2023-03-27T04:21:27.695Z,100230.38
2023-03-27T04:24:02.263Z,100233.78
2023-03-27T04:26:43.444Z,100241.50
2023-03-27T04:29:30.248Z,100250.03
2023-03-27T04:32:02.566Z,100250.84
2023-03-27T04:34:42.899Z,100253.41
2023-03-27T04:37:14.624Z,100262.91
2023-03-27T04:39:54.520Z,100268.06
2023-03-27T04:42:24.096Z,100269.00
2023-03-27T04:44:53.317Z,100271.66
2023-03-27T04:47:23.881Z,100272.66
2023-03-27T04:49:59.310Z,100279.59
2023-03-27T04:52:29.631Z,100285.66
2023-03-27T04:55:00.347Z,100282.28
2023-03-27T04:57:30.897Z,100288.31
2023-03-27T05:00:11.622Z,100289.31
2023-03-27T05:03:02.137Z,100288.56
2023-03-27T05:05:40.104Z,100296.38
2023-03-27T05:08:09.157Z,100298.16
2023-03-27T05:10:37.732Z,100299.94
2023-03-27T05:13:06.608Z,100304.41
2023-03-27T05:15:35.473Z,100302.81
2023-03-27T05:18:07.653Z,100303.72
2023-03-27T05:20:37.342Z,100311.56
2023-03-27T05:23:10.827Z,100308.38
2023-03-27T05:25:39.998Z,100315.34
2023-03-27T05:28:13.519Z,100323.28
2023-03-27T05:30:43.295Z,100323.28
2023-03-27T05:33:19.147Z,100332.09
2023-03-27T05:35:50.314Z,100329.63
2023-03-27T05:38:18.994Z,100334.09
2023-03-27T05:41:07.094Z,100342.13
2023-03-27T05:43:39.801Z,100350.88
2023-03-27T05:46:09.259Z,100358.81
2023-03-27T05:48:39.891Z,100364.97
2023-03-27T05:51:09.450Z,100359.81
2023-03-27T05:53:39.708Z,100368.63
2023-03-27T05:56:37.426Z,100373.91
2023-03-27T05:59:07.013Z,100372.31
2023-03-27T06:01:37.245Z,100369.13
2023-03-27T06:04:09.222Z,100374.47
2023-03-27T06:06:56.253Z,100385.03
2023-03-27T06:09:25.591Z,100383.44
2023-03-27T06:12:12.677Z,100391.38
2023-03-27T06:14:41.605Z,100388.09
2023-03-27T06:17:30.315Z,100384.81
2023-03-27T06:20:11.033Z,100391.88
2023-03-27T06:22:43.073Z,100385.88
2023-03-27T06:25:11.859Z,100401.50
2023-03-27T06:27:43.254Z,100405.06
2023-03-27T06:30:12.982Z,100404.38
2023-03-27T06:32:46.601Z,100408.84
2023-03-27T06:35:18.494Z,100420.19
2023-03-27T06:37:55.847Z,100410.81
2023-03-27T06:40:27.978Z,100416.19
2023-03-27T06:43:02.603Z,100416.38
2023-03-27T06:45:44.355Z,100413.19
2023-03-27T06:48:31.760Z,100421.16
2023-03-27T06:51:05.573Z,100427.50
2023-03-27T06:53:37.361Z,100430.09
2023-03-27T06:56:08.008Z,100425.91
2023-03-27T06:58:59.283Z,100426.88
2023-03-27T07:01:29.444Z,100433.03
2023-03-27T07:04:12.390Z,100434.94
2023-03-27T07:07:01.360Z,100441.09
2023-03-27T07:09:34.250Z,100440.41
2023-03-27T07:12:08.879Z,100446.63
2023-03-27T07:14:38.798Z,100450.22
2023-03-27T07:17:09.228Z,100452.03
2023-03-27T07:19:56.015Z,100453.09
2023-03-27T07:22:30.976Z,100461.84
2023-03-27T07:25:06.563Z,100466.44
2023-03-27T07:27:41.631Z,100469.19
2023-03-27T07:30:13.328Z,100474.72
2023-03-27T07:32:43.635Z,100472.56
2023-03-27T07:35:12.615Z,100477.91
2023-03-27T07:38:01.147Z,100483.38
2023-03-27T07:40:40.403Z,100476.69
2023-03-27T07:43:27.949Z,100488.19
2023-03-27T07:45:57.791Z,100490.19
2023-03-27T07:48:27.914Z,100487.00
2023-03-27T07:51:07.109Z,100497.72
2023-03-27T07:53:43.463Z,100492.03
2023-03-27T07:56:22.095Z,100495.88
2023-03-27T07:58:53.137Z,100498.84
2023-03-27T08:01:23.810Z,100504.50
2023-03-27T08:03:52.393Z,100500.56
2023-03-27T08:06:22.444Z,100508.09
2023-03-27T08:08:52.191Z,100504.28
2023-03-27T08:11:30.381Z,100505.44
2023-03-27T08:13:59.903Z,100506.78
2023-03-27T08:16:30.200Z,100510.72
2023-03-27T08:19:01.319Z,100511.16
2023-03-27T08:21:31.882Z,100522.91
2023-03-27T08:24:04.635Z,100520.66
2023-03-27T08:26:36.220Z,100527.88
2023-03-27T08:29:08.935Z,100525.56
2023-03-27T08:31:39.433Z,100523.25
2023-03-27T08:34:08.716Z,100532.44
2023-03-27T08:36:46.762Z,100528.59
2023-03-27T08:39:17.805Z,100534.94
2023-03-27T08:42:09.401Z,100537.69
2023-03-27T08:44:41.008Z,100541.25
2023-03-27T08:47:18.223Z,100540.47
2023-03-27T08:49:58.603Z,100546.63
2023-03-27T08:52:33.994Z,100555.47
2023-03-27T08:55:15.396Z,100554.13
2023-03-27T08:57:51.882Z,100562.34
2023-03-27T09:00:29.360Z,100563.66
2023-03-27T09:03:14.550Z,100571.06
2023-03-27T09:05:46.862Z,100573.13
2023-03-27T09:08:28.204Z,100569.97
2023-03-27T09:11:06.008Z,100574.28
2023-03-27T09:13:47.362Z,100578.00
2023-03-27T09:16:22.295Z,100566.97
2023-03-27T09:18:57.808Z,100570.38
2023-03-27T09:21:37.474Z,100571.44
2023-03-27T09:24:18.172Z,100564.72
2023-03-27T09:27:18.469Z,100576.00
2023-03-27T09:30:05.628Z,100566.34
2023-03-27T09:32:57.989Z,100569.94
2023-03-27T09:35:27.316Z,100569.94
2023-03-27T09:37:59.644Z,100578.69
2023-03-27T09:40:33.611Z,100595.06
2023-03-27T09:43:09.541Z,100610.22
2023-03-27T09:45:41.899Z,100612.31
2023-03-27T09:48:16.308Z,100607.31
2023-03-27T09:50:49.289Z,100616.28
2023-03-27T09:53:35.298Z,100614.84
2023-03-27T09:56:18.306Z,100616.13
2023-03-27T09:58:59.109Z,100615.28
2023-03-27T10:01:30.773Z,100611.25
2023-03-27T10:04:14.208Z,100606.63
2023-03-27T10:06:47.464Z,100604.56
2023-03-27T10:09:24.179Z,100604.06
2023-03-27T10:12:02.067Z,100602.81
2023-03-27T10:14:36.089Z,100597.16
2023-03-27T10:17:05.490Z,100607.88
2023-03-27T10:19:37.164Z,100603.94
2023-03-27T10:22:19.253Z,100602.63
2023-03-27T10:24:49.512Z,100600.31
2023-03-27T10:27:40.515Z,100602.75
2023-03-27T10:30:38.022Z,100613.78
2023-03-27T10:33:34.147Z,100610.72
2023-03-27T10:36:22.748Z,100615.75
2023-03-27T10:38:56.245Z,100640.59
2023-03-27T10:41:41.691Z,100647.72
2023-03-27T10:44:17.966Z,100662.09
2023-03-27T10:46:54.262Z,100669.63
2023-03-27T10:49:30.612Z,100665.00
2023-03-27T10:52:12.175Z,100648.28
2023-03-27T10:55:13.408Z,100650.88
2023-03-27T10:57:54.354Z,100648.94
2023-03-27T11:00:34.677Z,100649.72
2023-03-27T11:03:13.723Z,100651.69
2023-03-27T11:05:45.506Z,100646.84
2023-03-27T11:08:32.813Z,100640.50
2023-03-27T11:11:09.194Z,100646.31
2023-03-27T11:13:46.793Z,100652.31
2023-03-27T11:16:21.692Z,100648.88
2023-03-27T11:19:32.082Z,100637.94
2023-03-27T11:22:29.008Z,100648.59
2023-03-27T11:25:06.661Z,100637.34
2023-03-27T11:27:41.199Z,100652.84
2023-03-27T11:30:32.853Z,100675.00
2023-03-27T11:33:25.652Z,100691.31
2023-03-27T11:36:14.907Z,100694.41
2023-03-27T11:38:51.571Z,100702.81
2023-03-27T11:41:20.478Z,100694.03
2023-03-27T11:43:49.416Z,100692.44
2023-03-27T11:47:10.831Z,100697.94
2023-03-27T11:49:56.285Z,100691.50
2023-03-27T11:52:36.669Z,100691.97
2023-03-27T11:55:16.975Z,100689.97
2023-03-27T11:58:04.229Z,100686.31
2023-03-27T12:00:52.516Z,100685.13
2023-03-27T12:04:04.140Z,100682.88
2023-03-27T12:07:04.595Z,100685.97
2023-03-27T12:09:52.464Z,100686.25
2023-03-27T12:13:02.887Z,100665.94
2023-03-27T12:15:47.140Z,100672.66
2023-03-27T12:18:35.805Z,100670.72
2023-03-27T12:21:24.442Z,100690.06
2023-03-27T12:24:17.260Z,100717.50
2023-03-27T12:27:47.399Z,100715.81
2023-03-27T12:30:46.404Z,100714.25
2023-03-27T12:33:53.346Z,100719.53
2023-03-27T12:36:24.743Z,100729.53
2023-03-27T12:38:54.143Z,100730.03
2023-03-27T12:41:24.819Z,100723.59
2023-03-27T12:44:06.317Z,100721.81
2023-03-27T12:46:43.626Z,100715.53
2023-03-27T12:49:49.036Z,100723.34
2023-03-27T12:52:28.507Z,100719.13
2023-03-27T12:55:34.392Z,100715.78
2023-03-27T12:58:06.136Z,100712.81
2023-03-27T13:01:03.663Z,100711.97
2023-03-27T13:04:17.295Z,100707.88
2023-03-27T13:06:55.924Z,100701.22
2023-03-27T13:09:48.158Z,100692.63
2023-03-27T13:12:36.627Z,100699.69
2023-03-27T13:15:37.596Z,100699.53
2023-03-27T13:18:33.428Z,100694.03
2023-03-27T13:21:18.768Z,100690.50
2023-03-27T13:23:56.930Z,100689.28
2023-03-27T13:26:45.162Z,100690.66
2023-03-27T13:29:18.188Z,100694.59
2023-03-27T13:32:05.245Z,100698.31
2023-03-27T13:35:05.020Z,100726.91
2023-03-27T13:37:58.955Z,100730.41
2023-03-27T13:40:40.463Z,100748.88
2023-03-27T13:43:25.263Z,100752.63
2023-03-27T13:46:06.044Z,100758.38
2023-03-27T13:49:22.206Z,100778.13
2023-03-27T13:52:33.358Z,100782.69
2023-03-27T13:55:39.516Z,100778.75
2023-03-27T13:58:59.354Z,100785.63
2023-03-27T14:01:43.185Z,100777.63
2023-03-27T14:04:29.465Z,100780.03
2023-03-27T14:07:25.333Z,100776.69
2023-03-27T14:10:25.268Z,100766.53
2023-03-27T14:13:19.136Z,100768.16
2023-03-27T14:16:31.845Z,100762.66
2023-03-27T14:19:33.101Z,100757.75
2023-03-27T14:22:05.846Z,100751.03
2023-03-27T14:24:44.680Z,100755.59
2023-03-27T14:27:33.478Z,100753.66
2023-03-27T14:30:08.643Z,100748.28
2023-03-27T14:32:40.178Z,100761.19
2023-03-27T14:35:25.158Z,100763.19
2023-03-27T14:38:07.506Z,100767.91
2023-03-27T14:40:47.443Z,100774.47
2023-03-27T14:43:21.095Z,100769.59
2023-03-27T14:45:58.417Z,100758.41
2023-03-27T14:48:29.645Z,100759.22
2023-03-27T14:51:02.691Z,100767.66
2023-03-27T14:53:43.958Z,100764.19
2023-03-27T14:56:27.571Z,100762.66
2023-03-27T14:58:59.570Z,100755.91
2023-03-27T15:01:39.086Z,100761.03
2023-03-27T15:04:11.003Z,100756.00
2023-03-27T15:06:41.609Z,100752.97
2023-03-27T15:09:15.602Z,100766.13
2023-03-27T15:12:11.115Z,100771.72
2023-03-27T15:14:42.271Z,100767.63
2023-03-27T15:17:15.838Z,100762.78
2023-03-27T15:19:48.820Z,100757.22
2023-03-27T15:22:23.735Z,100759.00
2023-03-27T15:24:55.988Z,100760.31
2023-03-27T15:27:30.419Z,100753.66
2023-03-27T15:30:02.066Z,100765.00
2023-03-27T15:32:42.303Z,100771.06
2023-03-27T15:35:15.380Z,100776.31
2023-03-27T15:37:43.818Z,100772.31
2023-03-27T15:40:36.568Z,100777.03
2023-03-27T15:43:21.004Z,100775.63
2023-03-27T15:46:05.117Z,100781.78
2023-03-27T15:48:35.975Z,100778.81
2023-03-27T15:51:06.710Z,100781.63
2023-03-27T15:53:37.658Z,100785.19
2023-03-27T15:56:08.892Z,100785.19
2023-03-27T15:58:47.131Z,100782.44
2023-03-27T16:01:20.120Z,100790.84
2023-03-27T16:03:51.158Z,100786.44
2023-03-27T16:06:30.747Z,100788.84
2023-03-27T16:09:00.094Z,100789.16
2023-03-27T16:11:39.396Z,100800.28
2023-03-27T16:14:23.800Z,100796.75
2023-03-27T16:16:56.068Z,100805.66
2023-03-27T16:19:24.499Z,100806.16
2023-03-27T16:21:56.107Z,100802.22
2023-03-27T16:24:24.498Z,100815.66
2023-03-27T16:26:54.875Z,100828.28
2023-03-27T16:29:24.704Z,100814.25
2023-03-27T16:31:54.472Z,100824.03
2023-03-27T16:34:23.728Z,100814.16
2023-03-27T16:36:52.343Z,100819.22
2023-03-27T16:39:21.063Z,100826.75
2023-03-27T16:41:49.411Z,100830.00
2023-03-27T16:44:18.887Z,100831.63
2023-03-27T16:46:48.704Z,100839.28
2023-03-27T16:49:17.133Z,100838.28
2023-03-27T16:51:45.451Z,100841.47
2023-03-27T16:54:13.756Z,100844.72
2023-03-27T16:56:42.048Z,100855.69
2023-03-27T16:59:10.523Z,100851.13
2023-03-27T17:01:38.968Z,100861.22
2023-03-27T17:04:08.809Z,100864.41
2023-03-27T17:06:38.390Z,100868.38
2023-03-27T17:09:07.681Z,100876.66
2023-03-27T17:11:36.798Z,100879.00
2023-03-27T17:14:05.343Z,100876.13
2023-03-27T17:16:34.073Z,100885.47
2023-03-27T17:19:02.796Z,100893.03
2023-03-27T17:21:32.935Z,100900.81
2023-03-27T17:24:02.135Z,100903.09
2023-03-27T17:26:32.854Z,100912.41
2023-03-27T17:29:03.271Z,100914.75
2023-03-27T17:31:32.660Z,100919.78
2023-03-27T17:34:01.134Z,100922.22
2023-03-27T17:36:40.256Z,100926.16
2023-03-27T17:39:13.387Z,100922.50
2023-03-27T17:41:41.835Z,100926.59
2023-03-27T17:44:12.154Z,100930.75
2023-03-27T17:46:41.034Z,100933.16
2023-03-27T17:49:09.554Z,100938.97
2023-03-27T17:51:38.369Z,100947.41
2023-03-27T17:54:06.893Z,100953.25
2023-03-27T17:56:36.879Z,100939.50
2023-03-27T17:59:05.936Z,100939.94
2023-03-27T18:01:34.418Z,100942.16
2023-03-27T18:04:03.578Z,100947.16
2023-03-27T18:06:32.235Z,100951.19
2023-03-27T18:09:00.792Z,100949.13
2023-03-27T18:11:29.954Z,100957.63
2023-03-27T18:13:59.880Z,100961.81
2023-03-27T18:16:28.515Z,100969.25
2023-03-27T18:18:57.539Z,100972.44
2023-03-27T18:21:26.449Z,100964.38
2023-03-27T18:23:56.499Z,100966.69
2023-03-27T18:26:24.905Z,100973.50
2023-03-27T18:28:54.355Z,100970.69
2023-03-27T18:31:24.535Z,100975.69
2023-03-27T18:33:53.313Z,100972.09
2023-03-27T18:36:22.136Z,100980.00
2023-03-27T18:38:52.010Z,100976.50
2023-03-27T18:41:20.453Z,100984.31
2023-03-27T18:43:48.987Z,100986.78
2023-03-27T18:46:17.751Z,100987.50
2023-03-27T18:48:49.121Z,100990.69
2023-03-27T18:51:18.758Z,100988.72
2023-03-27T18:53:47.355Z,100991.03
2023-03-27T18:56:16.763Z,101002.00
2023-03-27T18:58:45.452Z,101003.50
2023-03-27T19:01:13.967Z,100996.31
2023-03-27T19:03:42.991Z,100998.72
2023-03-27T19:06:13.910Z,101002.91
2023-03-27T19:08:45.486Z,101002.03
2023-03-27T19:11:14.234Z,101005.31
2023-03-27T19:14:01.246Z,101007.72
2023-03-27T19:16:39.056Z,101010.91
2023-03-27T19:19:45.216Z,101017.50
2023-03-27T19:22:16.032Z,101012.13
2023-03-27T19:24:48.935Z,101015.28
2023-03-27T19:27:23.488Z,101020.09
2023-03-27T19:29:53.189Z,101021.56
2023-03-27T19:32:21.859Z,101030.16
2023-03-27T19:34:50.383Z,101026.44
2023-03-27T19:37:21.184Z,101026.38
2023-03-27T19:39:50.598Z,101024.47
2023-03-27T19:42:19.245Z,101019.97
2023-03-27T19:44:47.864Z,101021.56
2023-03-27T19:47:16.436Z,101019.69
2023-03-27T19:49:44.917Z,101029.84
2023-03-27T19:52:31.122Z,101032.31
2023-03-27T19:54:59.588Z,101034.72
2023-03-27T19:57:28.242Z,101035.41
2023-03-27T19:59:56.747Z,101037.00
2023-03-27T20:02:25.271Z,101045.59
2023-03-27T20:04:53.933Z,101047.16
2023-03-27T20:07:22.445Z,101044.38
2023-03-27T20:09:52.280Z,101053.72
2023-03-27T20:12:21.230Z,101050.13
2023-03-27T20:15:02.815Z,101048.13
2023-03-27T20:17:38.071Z,101057.28
2023-03-27T20:20:07.278Z,101057.97
2023-03-27T20:22:46.356Z,101058.66
2023-03-27T20:25:24.608Z,101051.50
2023-03-27T20:27:53.037Z,101052.25
2023-03-27T20:31:05.021Z,101052.94
2023-03-27T20:33:35.870Z,101057.03
2023-03-27T20:36:04.421Z,101052.56
2023-03-27T20:38:32.977Z,101055.72
2023-03-27T20:41:04.091Z,101051.09
2023-03-27T20:43:35.954Z,101055.06
2023-03-27T20:46:05.493Z,101054.66
2023-03-27T20:48:41.448Z,101060.31
2023-03-27T20:51:14.801Z,101063.47
2023-03-27T20:53:43.877Z,101069.19
2023-03-27T20:56:15.392Z,101073.38
2023-03-27T20:58:44.323Z,101066.19
2023-03-27T21:01:12.909Z,101069.56
2023-03-27T21:03:46.422Z,101073.63
2023-03-27T21:06:17.147Z,101068.13
2023-03-27T21:08:46.533Z,101072.28
2023-03-27T21:11:16.430Z,101064.19
2023-03-27T21:13:44.856Z,101070.97
2023-03-27T21:16:13.447Z,101070.72
2023-03-27T21:18:41.978Z,101079.16
2023-03-27T21:21:10.518Z,101067.84
2023-03-27T21:23:39.885Z,101072.78
2023-03-27T21:26:08.614Z,101074.38
2023-03-27T21:28:38.475Z,101075.81
2023-03-27T21:31:08.303Z,101088.53
2023-03-27T21:33:37.335Z,101082.34
2023-03-27T21:36:06.746Z,101091.59
2023-03-27T21:38:35.381Z,101088.75
2023-03-27T21:41:04.311Z,101085.19
2023-03-27T21:43:33.084Z,101084.94
2023-03-27T21:46:03.739Z,101093.28
2023-03-27T21:48:32.388Z,101093.03
2023-03-27T21:51:01.985Z,101098.78
2023-03-27T21:53:30.897Z,101091.59
2023-03-27T21:55:59.968Z,101097.34
2023-03-27T21:58:28.922Z,101098.66
2023-03-27T22:00:58.469Z,101096.66
2023-03-27T22:03:29.550Z,101092.03
2023-03-27T22:06:11.758Z,101092.59
2023-03-27T22:08:42.492Z,101094.84
2023-03-27T22:11:12.543Z,101099.75
2023-03-27T22:13:41.528Z,101098.63
2023-03-27T22:16:11.979Z,101104.34
2023-03-27T22:18:42.721Z,101101.44
2023-03-27T22:21:19.348Z,101106.25
2023-03-27T22:23:48.933Z,101106.00
2023-03-27T22:26:17.561Z,101116.13
2023-03-27T22:28:46.087Z,101119.28
2023-03-27T22:31:14.575Z,101117.22
2023-03-27T22:33:44.406Z,101122.16
2023-03-27T22:36:13.335Z,101123.50
2023-03-27T22:38:42.604Z,101128.31
2023-03-27T22:41:12.451Z,101135.69
2023-03-27T22:43:41.621Z,101134.44
2023-03-27T22:46:12.313Z,101147.22
2023-03-27T22:48:41.251Z,101147.88
2023-03-27T22:51:12.168Z,101147.63
2023-03-27T22:53:40.938Z,101141.34
2023-03-27T22:56:10.257Z,101147.19
2023-03-27T22:58:38.768Z,101147.84
2023-03-27T23:01:08.086Z,101143.34
2023-03-27T23:03:36.853Z,101148.38
2023-03-27T23:06:05.940Z,101156.78
2023-03-27T23:08:35.783Z,101146.22
2023-03-27T23:11:06.505Z,101156.28
2023-03-27T23:13:36.456Z,101161.19
2023-03-27T23:16:05.380Z,101166.13
2023-03-27T23:18:33.885Z,101166.78
2023-03-27T23:21:03.690Z,101172.59
2023-03-27T23:23:33.273Z,101168.09
2023-03-27T23:26:04.027Z,101175.69
2023-03-27T23:28:34.825Z,101168.50
2023-03-27T23:31:04.576Z,101168.25
2023-03-27T23:33:36.541Z,101166.31
2023-03-27T23:36:07.383Z,101171.25
2023-03-27T23:38:37.377Z,101172.69
2023-03-27T23:41:08.953Z,101178.50
2023-03-27T23:43:38.141Z,101170.38
2023-03-27T23:46:08.695Z,101171.94
2023-03-27T23:48:37.808Z,101173.50
2023-03-27T23:51:07.227Z,101181.88
2023-03-27T23:53:37.445Z,101179.94
2023-03-27T23:56:08.125Z,101189.22
2023-03-27T23:58:37.320Z,101189.00
